createdAt,value
2019-04-11T00:01:12.199Z,10.90
2019-04-11T00:03:51.370Z,10.90
2019-04-11T00:06:29.644Z,9.97
2019-04-11T00:09:10.249Z,10.03
2019-04-11T00:11:48.286Z,11.33
2019-04-11T00:14:25.514Z,12.40
2019-04-11T00:17:03.670Z,10.00
2019-04-11T00:19:40.939Z,12.00
2019-04-11T00:22:18.023Z,11.23
2019-04-11T00:24:55.502Z,11.27
2019-04-11T00:27:32.973Z,10.60
2019-04-11T00:30:10.213Z,10.37
2019-04-11T00:32:47.335Z,11.77
2019-04-11T00:35:24.517Z,9.70
2019-04-11T00:38:01.659Z,10.97
2019-04-11T00:40:39.530Z,11.23
2019-04-11T00:43:29.772Z,11.80
2019-04-11T00:45:56.090Z,12.30
2019-04-11T00:48:33.550Z,11.63
2019-04-11T00:51:11.831Z,10.50
2019-04-11T00:53:49.986Z,10.77
2019-04-11T00:56:28.253Z,10.63
2019-04-11T00:59:05.870Z,10.93
2019-04-11T01:01:43.089Z,10.20
2019-04-11T01:04:20.145Z,9.83
2019-04-11T01:06:58.591Z,10.40
2019-04-11T01:09:40.496Z,9.83
2019-04-11T01:12:18.936Z,10.90
2019-04-11T01:14:57.273Z,10.23
2019-04-11T01:17:34.726Z,10.53
2019-04-11T01:20:11.954Z,17.97
2019-04-11T01:22:49.176Z,9.60
2019-04-11T01:25:26.361Z,10.23
2019-04-11T01:28:04.840Z,11.23
2019-04-11T01:30:53.332Z,11.27
2019-04-11T01:33:31.684Z,10.80
2019-04-11T01:36:09.083Z,11.50
2019-04-11T01:38:57.019Z,11.87
2019-04-11T01:41:34.361Z,11.73
2019-04-11T01:44:12.386Z,11.77
2019-04-11T01:46:50.668Z,10.50
2019-04-11T01:49:30.332Z,11.50
2019-04-11T01:52:07.542Z,9.73
2019-04-11T01:54:45.922Z,10.63
2019-04-11T01:57:23.195Z,10.07
2019-04-11T02:00:00.318Z,10.70
2019-04-11T02:02:39.168Z,10.83
2019-04-11T02:05:25.136Z,12.30
2019-04-11T02:08:02.896Z,12.50
2019-04-11T02:10:41.127Z,12.23
2019-04-11T02:13:19.505Z,12.40
2019-04-11T02:15:58.345Z,12.50
2019-04-11T02:18:35.659Z,12.60
2019-04-11T02:21:13.626Z,11.70
2019-04-11T02:23:53.127Z,12.20
2019-04-11T02:26:31.858Z,11.83
2019-04-11T02:29:09.036Z,12.93
2019-04-11T02:31:52.913Z,13.13
2019-04-11T02:34:31.598Z,13.77
2019-04-11T02:37:09.296Z,13.87
2019-04-11T02:39:47.291Z,16.27
2019-04-11T02:42:25.576Z,14.90
2019-04-11T02:45:19.594Z,15.40
2019-04-11T02:47:46.600Z,16.30
2019-04-11T02:50:24.160Z,14.83
2019-04-11T02:53:02.726Z,17.63
2019-04-11T02:55:41.722Z,16.23
2019-04-11T02:58:20.441Z,16.50
2019-04-11T03:01:01.027Z,16.10
2019-04-11T03:03:37.360Z,17.63
2019-04-11T03:06:15.406Z,15.17
2019-04-11T03:08:53.073Z,16.10
2019-04-11T03:11:32.572Z,16.60
2019-04-11T03:14:11.693Z,17.43
2019-04-11T03:16:59.725Z,15.77
2019-04-11T03:19:42.206Z,18.13
2019-04-11T03:22:08.131Z,19.03
2019-04-11T03:24:46.987Z,17.70
2019-04-11T03:27:26.616Z,22.53
2019-04-11T03:30:06.810Z,18.50
2019-04-11T03:33:46.939Z,18.03
2019-04-11T03:36:27.575Z,18.50
2019-04-11T03:38:27.231Z,20.40
2019-04-11T03:40:57.961Z,19.80
2019-04-11T03:43:31.431Z,21.00
2019-04-11T03:46:16.071Z,19.73
2019-04-11T03:48:46.783Z,21.67
2019-04-11T03:51:14.937Z,22.17
2019-04-11T03:53:53.434Z,20.80
2019-04-11T03:56:33.046Z,19.30
2019-04-11T03:59:14.016Z,18.13
2019-04-11T04:01:50.681Z,22.07
2019-04-11T04:04:28.960Z,21.83
2019-04-11T04:07:06.880Z,19.53
2019-04-11T04:09:46.189Z,20.13
2019-04-11T04:12:23.573Z,19.10
2019-04-11T04:15:05.929Z,20.23
2019-04-11T04:17:43.417Z,20.30
2019-04-11T04:20:29.004Z,20.07
2019-04-11T04:23:12.418Z,18.00
2019-04-11T04:25:49.404Z,20.20
2019-04-11T04:28:27.322Z,20.17
2019-04-11T04:31:04.749Z,18.60
2019-04-11T04:33:42.972Z,18.33
2019-04-11T04:36:22.170Z,18.63
2019-04-11T04:38:59.698Z,21.47
2019-04-11T04:41:44.057Z,18.50
2019-04-11T04:44:17.074Z,20.77
2019-04-11T04:47:07.428Z,24.03
2019-04-11T04:49:34.515Z,20.03
2019-04-11T04:52:14.368Z,20.07
2019-04-11T04:54:52.896Z,23.47
2019-04-11T04:57:31.797Z,19.43
2019-04-11T05:00:09.458Z,18.83
2019-04-11T05:02:47.907Z,21.13
2019-04-11T05:05:26.727Z,20.93
2019-04-11T05:08:03.950Z,23.03
2019-04-11T05:10:41.330Z,22.50
2019-04-11T05:13:19.460Z,23.07
2019-04-11T05:16:07.004Z,24.90
2019-04-11T05:18:36.439Z,22.17
2019-04-11T05:21:13.834Z,24.23
2019-04-11T05:23:52.075Z,23.53
2019-04-11T05:26:29.386Z,21.03
2019-04-11T05:29:09.092Z,24.70
2019-04-11T05:31:47.027Z,24.30
2019-04-11T05:34:24.207Z,22.33
2019-04-11T05:37:01.902Z,24.97
2019-04-11T05:39:39.831Z,25.53
2019-04-11T05:42:19.944Z,19.87
2019-04-11T05:45:16.961Z,25.27
2019-04-11T05:47:53.529Z,22.33
2019-04-11T05:50:30.411Z,22.80
2019-04-11T05:53:07.617Z,23.73
2019-04-11T05:55:49.198Z,20.70
2019-04-11T05:58:44.342Z,23.37
2019-04-11T06:01:36.388Z,21.47
2019-04-11T06:04:20.317Z,21.87
2019-04-11T06:06:59.930Z,20.00
2019-04-11T06:09:41.419Z,20.50
2019-04-11T06:12:22.809Z,24.03
2019-04-11T06:15:02.013Z,21.47
2019-04-11T06:17:42.987Z,18.27
2019-04-11T06:20:37.761Z,20.97
2019-04-11T06:23:17.067Z,20.10
2019-04-11T06:25:55.900Z,20.60
2019-04-11T06:28:34.628Z,20.27
2019-04-11T06:31:20.161Z,18.20
2019-04-11T06:33:59.055Z,18.23
2019-04-11T06:36:55.218Z,18.27
2019-04-11T06:39:49.186Z,19.97
2019-04-11T06:42:32.675Z,18.27
2019-04-11T06:45:29.309Z,17.97
2019-04-11T06:48:22.299Z,16.67
2019-04-11T06:51:03.906Z,17.50
2019-04-11T06:53:44.120Z,16.87
2019-04-11T06:56:29.903Z,15.90
2019-04-11T06:59:08.531Z,16.40
2019-04-11T07:01:47.585Z,18.47
2019-04-11T07:04:27.372Z,16.40
2019-04-11T07:07:06.505Z,17.93
2019-04-11T07:09:49.213Z,15.77
2019-04-11T07:12:42.782Z,16.77
2019-04-11T07:15:23.664Z,16.90
2019-04-11T07:18:20.488Z,15.83
2019-04-11T07:21:00.535Z,15.37
2019-04-11T07:23:56.010Z,15.60
2019-04-11T07:26:37.494Z,15.23
2019-04-11T07:29:19.487Z,15.00
2019-04-11T07:32:11.651Z,15.27
2019-04-11T07:35:06.876Z,15.97
2019-04-11T07:37:44.717Z,15.07
2019-04-11T07:40:24.152Z,13.33
2019-04-11T07:43:11.508Z,14.77
2019-04-11T07:45:49.293Z,13.93
2019-04-11T07:48:29.197Z,14.67
2019-04-11T07:51:08.849Z,15.03
2019-04-11T07:53:48.104Z,13.70
2019-04-11T07:56:33.212Z,14.53
2019-04-11T07:59:12.903Z,15.00
2019-04-11T08:02:05.781Z,14.00
2019-04-11T08:04:57.650Z,14.30
2019-04-11T08:07:53.042Z,12.93
2019-04-11T08:10:45.751Z,11.97
2019-04-11T08:13:34.657Z,14.50
2019-04-11T08:16:30.833Z,14.67
2019-04-11T08:19:26.838Z,13.40
2019-04-11T08:22:23.134Z,15.80
2019-04-11T08:25:02.069Z,14.63
2019-04-11T08:27:54.938Z,14.87
2019-04-11T08:30:27.363Z,15.17
2019-04-11T08:33:07.392Z,16.47
2019-04-11T08:35:57.163Z,15.60
2019-04-11T08:38:34.325Z,15.83
2019-04-11T08:41:21.386Z,14.83
2019-04-11T08:43:59.440Z,14.93
2019-04-11T08:46:39.251Z,13.27
2019-04-11T08:49:37.490Z,14.77
2019-04-11T08:52:22.449Z,15.70
2019-04-11T08:55:06.222Z,14.93
2019-04-11T08:57:46.004Z,14.33
2019-04-11T09:00:28.253Z,13.40
2019-04-11T09:03:13.959Z,13.03
2019-04-11T09:06:06.184Z,13.60
2019-04-11T09:08:48.908Z,15.03
2019-04-11T09:15:02.701Z,15.60
2019-04-11T09:17:56.568Z,15.77
2019-04-11T09:20:43.658Z,15.33
2019-04-11T09:23:22.463Z,14.73
2019-04-11T09:26:23.554Z,15.03
2019-04-11T09:29:10.170Z,16.60
2019-04-11T09:32:05.780Z,16.33
2019-04-11T09:34:45.945Z,16.70
2019-04-11T09:37:23.548Z,17.30
2019-04-11T09:40:07.839Z,16.07
2019-04-11T09:42:51.240Z,17.63
2019-04-11T09:45:33.382Z,17.97
2019-04-11T09:48:29.438Z,16.70
2019-04-11T09:51:13.532Z,18.13
2019-04-11T09:53:56.791Z,19.07
2019-04-11T09:56:47.883Z,17.40
2019-04-11T09:59:45.551Z,16.37
2019-04-11T10:02:33.309Z,15.57
2019-04-11T10:05:16.310Z,16.87
2019-04-11T10:08:13.352Z,16.50
2019-04-11T10:10:53.258Z,14.77
2019-04-11T10:13:33.947Z,14.97
2019-04-11T10:16:22.106Z,16.50
2019-04-11T10:19:10.175Z,15.60
2019-04-11T10:22:02.688Z,16.97
2019-04-11T10:24:48.435Z,17.20
2019-04-11T10:27:36.385Z,15.20
2019-04-11T10:30:31.556Z,17.40
2019-04-11T10:33:10.857Z,17.57
2019-04-11T10:35:58.909Z,16.23
2019-04-11T10:38:36.278Z,17.10
2019-04-11T10:41:28.462Z,14.27
2019-04-11T10:44:05.714Z,14.50
2019-04-11T10:46:51.370Z,15.50
2019-04-11T10:49:30.420Z,16.93
2019-04-11T10:52:12.034Z,15.90
2019-04-11T10:55:09.401Z,15.27
2019-04-11T10:58:04.637Z,15.57
2019-04-11T11:00:43.593Z,16.27
2019-04-11T11:03:29.044Z,15.50
2019-04-11T11:06:07.978Z,15.87
2019-04-11T11:09:08.237Z,13.93
2019-04-11T11:11:54.835Z,13.33
2019-04-11T11:14:35.257Z,14.77
2019-04-11T11:17:17.537Z,13.83
2019-04-11T11:20:04.066Z,14.63
2019-04-11T11:22:41.994Z,16.43
2019-04-11T11:25:37.135Z,14.93
2019-04-11T11:28:15.997Z,14.07
2019-04-11T11:31:00.591Z,15.10
2019-04-11T11:33:38.594Z,14.17
2019-04-11T11:36:31.567Z,14.90
2019-04-11T11:39:20.518Z,13.90
2019-04-11T11:42:15.794Z,13.53
2019-04-11T11:44:55.265Z,13.20
2019-04-11T11:47:51.182Z,12.17
2019-04-11T11:50:33.024Z,13.03
2019-04-11T11:53:25.788Z,12.67
2019-04-11T11:56:03.770Z,13.30
2019-04-11T11:58:53.010Z,13.67
2019-04-11T12:01:31.720Z,13.23
2019-04-11T12:04:23.879Z,13.53
2019-04-11T12:07:06.022Z,12.57
2019-04-11T12:10:03.234Z,12.27
2019-04-11T12:13:04.389Z,12.57
2019-04-11T12:15:39.237Z,11.73
2019-04-11T12:18:35.235Z,11.70
2019-04-11T12:21:28.069Z,11.43
2019-04-11T12:24:08.217Z,10.43
2019-04-11T12:26:56.152Z,12.90
2019-04-11T12:29:48.955Z,11.17
2019-04-11T12:32:32.665Z,12.23
2019-04-11T12:35:28.913Z,11.67
2019-04-11T12:38:10.520Z,13.87
2019-04-11T12:41:05.342Z,13.03
2019-04-11T12:44:00.447Z,11.70
2019-04-11T12:46:55.486Z,12.17
2019-04-11T12:49:34.247Z,12.73
2019-04-11T12:52:15.977Z,12.37
2019-04-11T12:54:57.455Z,12.23
2019-04-11T12:57:52.927Z,13.07
2019-04-11T13:00:34.412Z,12.47
2019-04-11T13:03:29.345Z,13.20
2019-04-11T13:06:20.298Z,12.33
2019-04-11T13:09:14.134Z,12.70
2019-04-11T13:11:52.912Z,12.83
2019-04-11T13:14:37.995Z,13.03
2019-04-11T13:17:22.811Z,12.60
2019-04-11T13:20:18.033Z,12.00
2019-04-11T13:23:13.146Z,12.53
2019-04-11T13:26:08.561Z,12.37
2019-04-11T13:28:47.387Z,12.70
2019-04-11T13:31:29.066Z,12.80
2019-04-11T13:34:07.901Z,13.37
2019-04-11T13:37:02.898Z,12.20
2019-04-11T13:39:40.011Z,13.93
2019-04-11T13:42:27.527Z,12.73
2019-04-11T13:45:06.579Z,12.67
2019-04-11T13:48:01.814Z,12.13
2019-04-11T13:50:39.011Z,12.80
2019-04-11T13:53:34.529Z,11.57
2019-04-11T13:56:13.157Z,13.07
2019-04-11T13:58:52.032Z,10.97
2019-04-11T14:01:29.191Z,11.20
2019-04-11T14:04:08.920Z,12.00
2019-04-11T14:06:46.171Z,13.03
2019-04-11T14:09:25.440Z,12.43
2019-04-11T14:12:04.845Z,13.07
2019-04-11T14:14:43.036Z,12.57
2019-04-11T14:17:22.483Z,12.63
2019-04-11T14:20:14.100Z,11.57
2019-04-11T14:23:05.517Z,11.07
2019-04-11T14:25:50.170Z,12.70
2019-04-11T14:28:35.982Z,10.13
2019-04-11T14:31:29.135Z,13.13
2019-04-11T14:34:14.728Z,9.90
2019-04-11T14:36:54.010Z,12.03
2019-04-11T14:39:42.697Z,12.07
2019-04-11T14:42:31.960Z,8.70
2019-04-11T14:45:28.272Z,10.37
2019-04-11T14:48:22.356Z,9.50
2019-04-11T14:51:24.183Z,11.17
2019-04-11T14:54:07.149Z,12.17
2019-04-11T14:57:03.872Z,10.73
2019-04-11T14:59:46.106Z,13.50
2019-04-11T15:02:34.205Z,13.77
2019-04-11T15:05:16.099Z,11.53
2019-04-11T15:07:53.500Z,12.80
2019-04-11T15:10:47.946Z,13.40
2019-04-11T15:13:25.136Z,12.57
2019-04-11T15:16:21.993Z,12.77
2019-04-11T15:19:00.673Z,12.33
2019-04-11T15:21:46.843Z,11.93
2019-04-11T15:24:25.734Z,11.43
2019-04-11T15:27:08.741Z,10.23
2019-04-11T15:29:46.620Z,10.60
2019-04-11T15:32:34.598Z,12.57
2019-04-11T15:35:12.343Z,10.77
2019-04-11T15:37:53.841Z,9.80
2019-04-11T15:40:33.236Z,10.47
2019-04-11T15:43:15.272Z,10.40
2019-04-11T15:45:54.070Z,9.83
2019-04-11T15:48:38.734Z,9.53
2019-04-11T15:51:17.511Z,10.07
2019-04-11T15:54:14.714Z,11.53
2019-04-11T15:56:53.557Z,11.17
2019-04-11T15:59:38.312Z,10.93
2019-04-11T16:02:26.410Z,10.40
2019-04-11T16:05:18.775Z,10.20
2019-04-11T16:07:57.547Z,9.00
2019-04-11T16:10:41.832Z,11.70
2019-04-11T16:13:24.666Z,10.43
2019-04-11T16:16:07.181Z,8.97
2019-04-11T16:18:56.445Z,10.67
2019-04-11T16:21:35.495Z,10.57
2019-04-11T16:24:32.671Z,9.83
2019-04-11T16:27:17.761Z,10.17
2019-04-11T16:29:56.649Z,9.13
2019-04-11T16:32:38.404Z,8.53
2019-04-11T16:35:20.343Z,9.20
2019-04-11T16:38:01.947Z,8.67
2019-04-11T16:40:41.002Z,9.43
2019-04-11T16:43:19.174Z,10.20
2019-04-11T16:46:17.325Z,10.10
2019-04-11T16:48:57.223Z,9.90
2019-04-11T16:51:34.300Z,9.30
2019-04-11T16:54:11.461Z,9.77
2019-04-11T16:56:49.760Z,8.77
2019-04-11T16:59:28.178Z,9.33
2019-04-11T17:02:06.991Z,8.37
2019-04-11T17:04:44.223Z,10.50
2019-04-11T17:07:26.623Z,8.70
2019-04-11T17:10:07.971Z,9.33
2019-04-11T17:12:45.034Z,9.10
2019-04-11T17:15:22.363Z,9.57
2019-04-11T17:18:01.974Z,9.93
2019-04-11T17:20:39.719Z,9.70
2019-04-11T17:23:17.338Z,10.53
2019-04-11T17:25:54.997Z,9.60
2019-04-11T17:28:32.186Z,10.03
2019-04-11T17:31:12.256Z,11.87
2019-04-11T17:33:49.581Z,10.93
2019-04-11T17:36:26.769Z,8.67
2019-04-11T17:39:06.994Z,9.83
2019-04-11T17:41:45.004Z,9.37
2019-04-11T17:44:22.150Z,11.27
2019-04-11T17:46:59.386Z,13.00
2019-04-11T17:49:36.548Z,14.47
2019-04-11T17:52:14.075Z,11.90
2019-04-11T17:54:56.058Z,13.43
2019-04-11T17:57:34.115Z,11.67
2019-04-11T18:00:13.298Z,14.10
2019-04-11T18:02:51.987Z,10.50
2019-04-11T18:05:29.085Z,10.40
2019-04-11T18:08:06.332Z,13.90
2019-04-11T18:10:43.460Z,14.93
2019-04-11T18:13:20.819Z,17.30
2019-04-11T18:16:01.773Z,15.13
2019-04-11T18:18:39.284Z,13.50
2019-04-11T18:21:16.453Z,13.73
2019-04-11T18:23:53.843Z,15.73
2019-04-11T18:26:31.188Z,14.37
2019-04-11T18:29:08.491Z,14.63
2019-04-11T18:31:45.637Z,13.97
2019-04-11T18:34:23.008Z,14.27
2019-04-11T18:37:02.212Z,14.20
2019-04-11T18:39:39.071Z,15.60
2019-04-11T18:42:16.222Z,15.60
2019-04-11T18:44:57.528Z,15.30
2019-04-11T18:47:34.782Z,15.50
2019-04-11T18:50:12.121Z,12.90
2019-04-11T18:52:49.400Z,12.03
2019-04-11T18:55:26.693Z,11.57
2019-04-11T18:58:04.800Z,12.53
2019-04-11T19:00:42.483Z,11.57
2019-04-11T19:03:21.051Z,12.77
2019-04-11T19:05:58.228Z,11.87
2019-04-11T19:08:35.541Z,10.97
2019-04-11T19:11:15.425Z,10.00
2019-04-11T19:13:55.103Z,10.87
2019-04-11T19:16:32.828Z,10.73
2019-04-11T19:19:10.748Z,10.97
2019-04-11T19:21:50.753Z,10.87
2019-04-11T19:24:35.377Z,11.03
2019-04-11T19:27:05.593Z,11.37
2019-04-11T19:29:42.813Z,11.37
2019-04-11T19:32:19.989Z,11.87
2019-04-11T19:34:57.237Z,12.07
2019-04-11T19:37:34.412Z,11.33
2019-04-11T19:40:16.090Z,10.23
2019-04-11T19:42:53.539Z,10.83
2019-04-11T19:45:33.982Z,10.77
2019-04-11T19:48:11.215Z,10.03
2019-04-11T19:50:48.403Z,10.50
2019-04-11T19:53:26.837Z,11.73
2019-04-11T19:56:06.866Z,11.97
2019-04-11T19:58:44.174Z,13.00
2019-04-11T20:01:23.530Z,14.30
2019-04-11T20:04:00.303Z,13.83
2019-04-11T20:06:44.864Z,13.43
2019-04-11T20:09:22.037Z,14.10
2019-04-11T20:12:01.054Z,12.97
2019-04-11T20:14:38.229Z,15.03
2019-04-11T20:17:19.229Z,15.60
2019-04-11T20:23:49.843Z,13.03
2019-04-11T20:26:44.236Z,12.40
2019-04-11T20:29:22.109Z,12.67
2019-04-11T20:32:02.193Z,13.27
2019-04-11T20:34:39.527Z,11.53
2019-04-11T20:37:16.814Z,14.43
2019-04-11T20:39:54.099Z,16.73
2019-04-11T20:42:33.143Z,13.40
2019-04-11T20:45:10.588Z,15.73
2019-04-11T20:47:49.002Z,14.27
2019-04-11T20:50:26.136Z,13.70
2019-04-11T20:53:12.560Z,12.47
2019-04-11T20:55:42.263Z,12.10
2019-04-11T20:58:27.191Z,12.40
2019-04-11T21:00:58.179Z,11.50
2019-04-11T21:03:35.711Z,11.73
2019-04-11T21:06:14.213Z,12.07
2019-04-11T21:08:51.454Z,12.07
2019-04-11T21:11:28.597Z,11.37
2019-04-11T21:14:05.861Z,10.20
2019-04-11T21:16:43.163Z,10.97
2019-04-11T21:19:23.222Z,10.53
2019-04-11T21:22:00.851Z,10.77
2019-04-11T21:24:39.518Z,10.83
2019-04-11T21:27:16.676Z,11.17
2019-04-11T21:29:53.906Z,10.03
2019-04-11T21:32:31.931Z,11.27
2019-04-11T21:35:09.780Z,11.07
2019-04-11T21:37:46.890Z,10.63
2019-04-11T21:40:24.105Z,10.60
2019-04-11T21:43:01.210Z,10.27
2019-04-11T21:45:38.339Z,10.80
2019-04-11T21:48:15.422Z,11.07
2019-04-11T21:50:52.569Z,9.63
2019-04-11T21:53:36.383Z,10.30
2019-04-11T21:56:08.444Z,10.30
2019-04-11T21:58:49.842Z,9.77
2019-04-11T22:01:39.879Z,11.00
2019-04-11T22:04:17.081Z,10.23
2019-04-11T22:06:54.228Z,10.20
2019-04-11T22:09:33.035Z,11.13
2019-04-11T22:12:10.124Z,10.77
2019-04-11T22:14:49.573Z,10.53
2019-04-11T22:17:27.827Z,10.97
2019-04-11T22:20:05.821Z,10.87
2019-04-11T22:22:42.956Z,11.47
2019-04-11T22:25:20.082Z,13.27
2019-04-11T22:27:57.203Z,10.73
2019-04-11T22:30:34.310Z,11.53
2019-04-11T22:33:18.763Z,12.10
2019-04-11T22:35:56.982Z,10.43
2019-04-11T22:38:34.684Z,11.00
2019-04-11T22:41:11.814Z,10.17
2019-04-11T22:43:48.954Z,10.67
2019-04-11T22:46:26.058Z,10.83
2019-04-11T22:49:03.175Z,11.20
2019-04-11T22:51:43.517Z,10.90
2019-04-11T22:54:19.032Z,10.47
2019-04-11T22:56:56.245Z,11.10
2019-04-11T22:59:33.375Z,10.30
2019-04-11T23:02:16.901Z,10.33
2019-04-11T23:04:52.130Z,9.90
2019-04-11T23:07:29.123Z,11.53
2019-04-11T23:10:07.159Z,11.07
2019-04-11T23:12:45.800Z,11.50
2019-04-11T23:15:25.946Z,10.93
2019-04-11T23:18:03.062Z,10.57
2019-04-11T23:20:43.700Z,9.57
2019-04-11T23:23:18.907Z,8.93
2019-04-11T23:25:56.052Z,10.00
2019-04-11T23:28:33.134Z,10.73
2019-04-11T23:31:10.274Z,10.50
2019-04-11T23:33:47.362Z,11.27
2019-04-11T23:36:24.517Z,10.17
2019-04-11T23:39:01.632Z,9.40
2019-04-11T23:41:38.814Z,10.07
2019-04-11T23:44:18.018Z,9.70
2019-04-11T23:46:54.642Z,9.37
2019-04-11T23:49:31.727Z,9.30
2019-04-11T23:52:08.867Z,10.53
2019-04-11T23:54:45.997Z,10.30
2019-04-11T23:57:23.101Z,9.97
